sensor_id;sensor_type;location;lat;lon;timestamp;temperature;humidity
11454;DHT22;5783;55.174;61.310;2023-02-28T00:02:00;17.20;32.10
11454;DHT22;5783;55.174;61.310;2023-02-28T00:04:31;17.20;32.10
11454;DHT22;5783;55.174;61.310;2023-02-28T00:07:01;17.20;32.10
11454;DHT22;5783;55.174;61.310;2023-02-28T00:09:30;17.20;32.10
11454;DHT22;5783;55.174;61.310;2023-02-28T00:11:59;17.20;32.10
11454;DHT22;5783;55.174;61.310;2023-02-28T00:14:30;17.20;32.00
11454;DHT22;5783;55.174;61.310;2023-02-28T00:16:59;17.20;32.00
11454;DHT22;5783;55.174;61.310;2023-02-28T00:19:29;17.20;32.00
11454;DHT22;5783;55.174;61.310;2023-02-28T00:21:58;17.20;32.00
11454;DHT22;5783;55.174;61.310;2023-02-28T00:24:27;17.20;32.10
11454;DHT22;5783;55.174;61.310;2023-02-28T00:26:56;17.20;31.90
11454;DHT22;5783;55.174;61.310;2023-02-28T00:29:25;17.20;31.80
11454;DHT22;5783;55.174;61.310;2023-02-28T00:31:54;17.20;32.00
11454;DHT22;5783;55.174;61.310;2023-02-28T00:34:23;17.10;32.00
11454;DHT22;5783;55.174;61.310;2023-02-28T00:36:52;17.10;32.00
11454;DHT22;5783;55.174;61.310;2023-02-28T00:39:22;17.10;32.00
11454;DHT22;5783;55.174;61.310;2023-02-28T00:41:51;17.00;32.10
11454;DHT22;5783;55.174;61.310;2023-02-28T00:44:20;17.10;32.20
11454;DHT22;5783;55.174;61.310;2023-02-28T00:46:49;17.00;32.20
11454;DHT22;5783;55.174;61.310;2023-02-28T00:49:20;17.00;32.10
11454;DHT22;5783;55.174;61.310;2023-02-28T00:51:50;17.10;32.20
11454;DHT22;5783;55.174;61.310;2023-02-28T00:54:19;17.10;32.10
11454;DHT22;5783;55.174;61.310;2023-02-28T00:56:50;17.10;32.20
11454;DHT22;5783;55.174;61.310;2023-02-28T00:59:19;17.10;32.20
11454;DHT22;5783;55.174;61.310;2023-02-28T01:01:48;17.10;32.40
11454;DHT22;5783;55.174;61.310;2023-02-28T01:04:17;17.10;32.40
11454;DHT22;5783;55.174;61.310;2023-02-28T01:06:47;17.10;32.50
11454;DHT22;5783;55.174;61.310;2023-02-28T01:09:16;17.00;32.50
11454;DHT22;5783;55.174;61.310;2023-02-28T01:11:45;17.00;32.50
11454;DHT22;5783;55.174;61.310;2023-02-28T01:14:16;17.00;32.30
11454;DHT22;5783;55.174;61.310;2023-02-28T01:16:45;17.10;32.40
11454;DHT22;5783;55.174;61.310;2023-02-28T01:19:15;17.10;32.50
11454;DHT22;5783;55.174;61.310;2023-02-28T01:21:44;17.10;32.20
11454;DHT22;5783;55.174;61.310;2023-02-28T01:24:13;17.10;32.20
11454;DHT22;5783;55.174;61.310;2023-02-28T01:26:42;17.10;32.40
11454;DHT22;5783;55.174;61.310;2023-02-28T01:29:12;17.10;32.20
11454;DHT22;5783;55.174;61.310;2023-02-28T01:31:41;17.00;32.10
11454;DHT22;5783;55.174;61.310;2023-02-28T01:34:10;17.10;32.20
11454;DHT22;5783;55.174;61.310;2023-02-28T01:36:39;17.00;32.20
11454;DHT22;5783;55.174;61.310;2023-02-28T01:39:08;17.00;32.30
11454;DHT22;5783;55.174;61.310;2023-02-28T01:41:39;16.90;32.30
11454;DHT22;5783;55.174;61.310;2023-02-28T01:46:58;17.00;32.40
11454;DHT22;5783;55.174;61.310;2023-02-28T01:49:27;17.00;32.30
11454;DHT22;5783;55.174;61.310;2023-02-28T01:51:57;17.10;32.40
11454;DHT22;5783;55.174;61.310;2023-02-28T01:54:28;17.10;32.40
11454;DHT22;5783;55.174;61.310;2023-02-28T02:00:09;17.10;32.30
11454;DHT22;5783;55.174;61.310;2023-02-28T02:05:30;17.00;32.40
11454;DHT22;5783;55.174;61.310;2023-02-28T02:08:21;17.00;32.50
11454;DHT22;5783;55.174;61.310;2023-02-28T02:47:23;17.20;32.00
11454;DHT22;5783;55.174;61.310;2023-02-28T02:49:55;17.20;32.10
11454;DHT22;5783;55.174;61.310;2023-02-28T02:53:00;17.20;32.20
11454;DHT22;5783;55.174;61.310;2023-02-28T02:54:59;17.20;32.20
11454;DHT22;5783;55.174;61.310;2023-02-28T03:00:42;17.20;32.40
11454;DHT22;5783;55.174;61.310;2023-02-28T03:03:12;17.10;32.50
11454;DHT22;5783;55.174;61.310;2023-02-28T03:06:01;17.10;32.60
11454;DHT22;5783;55.174;61.310;2023-02-28T03:08:52;17.10;32.60
11454;DHT22;5783;55.174;61.310;2023-02-28T03:11:21;17.10;32.80
11454;DHT22;5783;55.174;61.310;2023-02-28T03:13:54;17.10;32.60
11454;DHT22;5783;55.174;61.310;2023-02-28T03:34:41;17.10;32.40
11454;DHT22;5783;55.174;61.310;2023-02-28T03:37:30;17.10;32.40
11454;DHT22;5783;55.174;61.310;2023-02-28T03:42:54;17.20;32.40
11454;DHT22;5783;55.174;61.310;2023-02-28T03:45:44;17.20;32.30
11454;DHT22;5783;55.174;61.310;2023-02-28T03:51:25;17.20;32.30
11454;DHT22;5783;55.174;61.310;2023-02-28T04:02:25;17.20;32.40
11454;DHT22;5783;55.174;61.310;2023-02-28T04:04:54;17.20;32.50
11454;DHT22;5783;55.174;61.310;2023-02-28T04:07:23;17.20;32.50
11454;DHT22;5783;55.174;61.310;2023-02-28T04:09:52;17.30;32.70
11454;DHT22;5783;55.174;61.310;2023-02-28T04:12:21;17.30;32.60
11454;DHT22;5783;55.174;61.310;2023-02-28T04:14:51;17.30;32.60
11454;DHT22;5783;55.174;61.310;2023-02-28T04:17:20;17.30;32.40
11454;DHT22;5783;55.174;61.310;2023-02-28T04:19:49;17.30;32.30
11454;DHT22;5783;55.174;61.310;2023-02-28T04:22:18;17.30;32.20
11454;DHT22;5783;55.174;61.310;2023-02-28T04:24:47;17.40;32.20
11454;DHT22;5783;55.174;61.310;2023-02-28T04:27:16;17.40;32.10
11454;DHT22;5783;55.174;61.310;2023-02-28T04:29:46;17.40;32.00
11454;DHT22;5783;55.174;61.310;2023-02-28T04:32:15;17.40;32.10
11454;DHT22;5783;55.174;61.310;2023-02-28T04:34:44;17.40;32.10
11454;DHT22;5783;55.174;61.310;2023-02-28T04:37:14;17.40;32.10
11454;DHT22;5783;55.174;61.310;2023-02-28T04:39:43;17.50;32.00
11454;DHT22;5783;55.174;61.310;2023-02-28T04:42:13;17.60;31.70
11454;DHT22;5783;55.174;61.310;2023-02-28T04:44:42;17.80;31.50
11454;DHT22;5783;55.174;61.310;2023-02-28T04:47:11;17.90;31.30
11454;DHT22;5783;55.174;61.310;2023-02-28T04:49:40;18.00;31.20
11454;DHT22;5783;55.174;61.310;2023-02-28T04:52:09;18.10;31.10
11454;DHT22;5783;55.174;61.310;2023-02-28T04:54:40;18.20;30.90
11454;DHT22;5783;55.174;61.310;2023-02-28T04:57:09;18.30;30.70
11454;DHT22;5783;55.174;61.310;2023-02-28T04:59:38;18.50;30.60
11454;DHT22;5783;55.174;61.310;2023-02-28T05:02:07;18.60;30.40
11454;DHT22;5783;55.174;61.310;2023-02-28T05:04:36;18.70;30.20
11454;DHT22;5783;55.174;61.310;2023-02-28T05:07:06;18.80;30.30
11454;DHT22;5783;55.174;61.310;2023-02-28T05:09:36;18.80;30.40
11454;DHT22;5783;55.174;61.310;2023-02-28T05:12:05;18.80;30.90
11454;DHT22;5783;55.174;61.310;2023-02-28T05:14:34;18.70;30.10
11454;DHT22;5783;55.174;61.310;2023-02-28T05:17:04;18.80;30.30
11454;DHT22;5783;55.174;61.310;2023-02-28T05:19:33;18.90;30.20
11454;DHT22;5783;55.174;61.310;2023-02-28T05:22:02;18.90;30.30
11454;DHT22;5783;55.174;61.310;2023-02-28T05:24:31;19.00;30.20
11454;DHT22;5783;55.174;61.310;2023-02-28T05:27:00;19.00;30.10
11454;DHT22;5783;55.174;61.310;2023-02-28T05:29:29;19.00;30.10
11454;DHT22;5783;55.174;61.310;2023-02-28T05:31:59;18.90;30.00
11454;DHT22;5783;55.174;61.310;2023-02-28T05:34:28;18.80;30.00
11454;DHT22;5783;55.174;61.310;2023-02-28T05:36:57;18.80;30.00
11454;DHT22;5783;55.174;61.310;2023-02-28T05:39:26;18.80;30.00
11454;DHT22;5783;55.174;61.310;2023-02-28T05:41:55;18.80;30.00
11454;DHT22;5783;55.174;61.310;2023-02-28T05:44:26;18.70;30.10
11454;DHT22;5783;55.174;61.310;2023-02-28T05:46:55;18.60;30.10
11454;DHT22;5783;55.174;61.310;2023-02-28T05:49:25;18.50;30.20
11454;DHT22;5783;55.174;61.310;2023-02-28T05:51:54;18.40;30.20
11454;DHT22;5783;55.174;61.310;2023-02-28T05:54:23;18.30;30.20
11454;DHT22;5783;55.174;61.310;2023-02-28T05:56:52;18.20;30.30
11454;DHT22;5783;55.174;61.310;2023-02-28T05:59:21;18.10;30.50
11454;DHT22;5783;55.174;61.310;2023-02-28T06:01:50;18.00;30.60
11454;DHT22;5783;55.174;61.310;2023-02-28T06:04:20;18.00;30.60
11454;DHT22;5783;55.174;61.310;2023-02-28T06:06:50;18.00;31.00
11454;DHT22;5783;55.174;61.310;2023-02-28T06:09:20;18.00;30.90
11454;DHT22;5783;55.174;61.310;2023-02-28T06:11:49;18.10;30.90
11454;DHT22;5783;55.174;61.310;2023-02-28T06:14:20;18.10;30.90
11454;DHT22;5783;55.174;61.310;2023-02-28T06:16:49;18.10;31.00
11454;DHT22;5783;55.174;61.310;2023-02-28T06:19:18;18.20;31.10
11454;DHT22;5783;55.174;61.310;2023-02-28T06:21:50;18.20;31.70
11454;DHT22;5783;55.174;61.310;2023-02-28T06:24:22;18.20;31.40
11454;DHT22;5783;55.174;61.310;2023-02-28T06:26:53;18.20;31.70
11454;DHT22;5783;55.174;61.310;2023-02-28T06:29:24;18.10;32.50
11454;DHT22;5783;55.174;61.310;2023-02-28T06:31:54;18.10;33.20
11454;DHT22;5783;55.174;61.310;2023-02-28T06:34:23;18.20;34.00
11454;DHT22;5783;55.174;61.310;2023-02-28T06:36:52;18.30;33.80
11454;DHT22;5783;55.174;61.310;2023-02-28T06:39:21;18.50;33.70
11454;DHT22;5783;55.174;61.310;2023-02-28T06:41:51;18.50;33.50
11454;DHT22;5783;55.174;61.310;2023-02-28T06:44:21;18.50;34.10
11454;DHT22;5783;55.174;61.310;2023-02-28T06:46:51;18.50;34.20
11454;DHT22;5783;55.174;61.310;2023-02-28T06:49:20;18.40;34.40
11454;DHT22;5783;55.174;61.310;2023-02-28T06:51:49;18.30;34.40
11454;DHT22;5783;55.174;61.310;2023-02-28T06:54:18;18.50;34.80
11454;DHT22;5783;55.174;61.310;2023-02-28T06:56:47;18.50;34.60
11454;DHT22;5783;55.174;61.310;2023-02-28T06:59:17;18.60;34.30
11454;DHT22;5783;55.174;61.310;2023-02-28T07:01:46;18.80;34.00
11454;DHT22;5783;55.174;61.310;2023-02-28T07:04:15;18.80;33.40
11454;DHT22;5783;55.174;61.310;2023-02-28T07:06:45;18.80;33.00
11454;DHT22;5783;55.174;61.310;2023-02-28T07:09:14;18.70;32.90
11454;DHT22;5783;55.174;61.310;2023-02-28T07:11:43;18.60;33.00
11454;DHT22;5783;55.174;61.310;2023-02-28T07:14:12;18.60;33.60
11454;DHT22;5783;55.174;61.310;2023-02-28T07:16:41;18.70;33.40
11454;DHT22;5783;55.174;61.310;2023-02-28T07:19:12;18.90;32.90
11454;DHT22;5783;55.174;61.310;2023-02-28T07:21:41;18.90;32.30
11454;DHT22;5783;55.174;61.310;2023-02-28T07:24:10;18.90;32.10
11454;DHT22;5783;55.174;61.310;2023-02-28T07:26:41;18.90;32.00
11454;DHT22;5783;55.174;61.310;2023-02-28T07:29:10;19.00;31.90
11454;DHT22;5783;55.174;61.310;2023-02-28T07:31:39;19.00;31.60
11454;DHT22;5783;55.174;61.310;2023-02-28T07:34:08;19.00;31.90
11454;DHT22;5783;55.174;61.310;2023-02-28T07:36:38;19.10;31.60
11454;DHT22;5783;55.174;61.310;2023-02-28T07:39:07;19.10;31.30
11454;DHT22;5783;55.174;61.310;2023-02-28T07:41:36;19.10;31.20
11454;DHT22;5783;55.174;61.310;2023-02-28T07:44:07;19.10;31.10
11454;DHT22;5783;55.174;61.310;2023-02-28T07:46:36;19.10;30.90
11454;DHT22;5783;55.174;61.310;2023-02-28T07:49:06;19.00;30.00
11454;DHT22;5783;55.174;61.310;2023-02-28T07:51:35;18.80;30.20
11454;DHT22;5783;55.174;61.310;2023-02-28T07:54:04;18.60;30.20
11454;DHT22;5783;55.174;61.310;2023-02-28T07:56:34;18.50;30.40
11454;DHT22;5783;55.174;61.310;2023-02-28T07:59:03;18.50;30.20
11454;DHT22;5783;55.174;61.310;2023-02-28T08:01:32;18.40;30.00
11454;DHT22;5783;55.174;61.310;2023-02-28T08:04:01;18.20;29.50
11454;DHT22;5783;55.174;61.310;2023-02-28T08:06:30;18.10;29.50
11454;DHT22;5783;55.174;61.310;2023-02-28T08:08:59;17.90;29.90
11454;DHT22;5783;55.174;61.310;2023-02-28T08:11:29;17.90;29.70
11454;DHT22;5783;55.174;61.310;2023-02-28T08:13:58;17.80;30.00
11454;DHT22;5783;55.174;61.310;2023-02-28T08:16:27;17.90;30.20
11454;DHT22;5783;55.174;61.310;2023-02-28T08:18:56;17.90;29.70
11454;DHT22;5783;55.174;61.310;2023-02-28T08:21:25;17.90;30.00
11454;DHT22;5783;55.174;61.310;2023-02-28T08:23:54;17.90;29.90
11454;DHT22;5783;55.174;61.310;2023-02-28T08:26:24;18.00;29.90
11454;DHT22;5783;55.174;61.310;2023-02-28T08:28:53;18.10;29.60
11454;DHT22;5783;55.174;61.310;2023-02-28T08:31:22;18.10;29.50
11454;DHT22;5783;55.174;61.310;2023-02-28T08:33:51;18.10;29.40
11454;DHT22;5783;55.174;61.310;2023-02-28T08:36:22;18.20;29.50
11454;DHT22;5783;55.174;61.310;2023-02-28T08:38:52;18.30;29.40
11454;DHT22;5783;55.174;61.310;2023-02-28T08:41:22;18.30;28.80
11454;DHT22;5783;55.174;61.310;2023-02-28T08:43:51;18.30;29.00
11454;DHT22;5783;55.174;61.310;2023-02-28T08:46:20;18.30;29.10
11454;DHT22;5783;55.174;61.310;2023-02-28T08:48:52;18.50;29.20
11454;DHT22;5783;55.174;61.310;2023-02-28T08:51:23;18.60;29.00
11454;DHT22;5783;55.174;61.310;2023-02-28T08:54:11;18.70;28.80
11454;DHT22;5783;55.174;61.310;2023-02-28T08:56:42;18.70;28.70
11454;DHT22;5783;55.174;61.310;2023-02-28T08:59:11;18.60;28.60
11454;DHT22;5783;55.174;61.310;2023-02-28T09:01:40;18.60;28.80
11454;DHT22;5783;55.174;61.310;2023-02-28T09:04:10;18.60;28.80
11454;DHT22;5783;55.174;61.310;2023-02-28T09:06:40;18.70;28.60
11454;DHT22;5783;55.174;61.310;2023-02-28T09:09:09;18.60;28.40
11454;DHT22;5783;55.174;61.310;2023-02-28T09:11:39;18.60;28.50
11454;DHT22;5783;55.174;61.310;2023-02-28T09:14:08;18.50;28.60
11454;DHT22;5783;55.174;61.310;2023-02-28T09:16:37;18.40;28.70
11454;DHT22;5783;55.174;61.310;2023-02-28T09:19:06;18.30;28.80
11454;DHT22;5783;55.174;61.310;2023-02-28T09:21:37;18.20;28.60
11454;DHT22;5783;55.174;61.310;2023-02-28T09:24:06;18.10;28.90
11454;DHT22;5783;55.174;61.310;2023-02-28T09:26:38;18.00;29.30
11454;DHT22;5783;55.174;61.310;2023-02-28T09:29:07;18.10;29.30
11454;DHT22;5783;55.174;61.310;2023-02-28T09:31:36;18.10;29.50
11454;DHT22;5783;55.174;61.310;2023-02-28T09:34:05;18.10;29.40
11454;DHT22;5783;55.174;61.310;2023-02-28T09:36:34;18.10;29.40
11454;DHT22;5783;55.174;61.310;2023-02-28T09:39:23;18.10;29.50
11454;DHT22;5783;55.174;61.310;2023-02-28T09:41:55;17.90;29.20
11454;DHT22;5783;55.174;61.310;2023-02-28T09:44:44;17.90;29.50
11454;DHT22;5783;55.174;61.310;2023-02-28T09:47:36;17.90;29.10
11454;DHT22;5783;55.174;61.310;2023-02-28T09:53:34;17.90;29.30
11454;DHT22;5783;55.174;61.310;2023-02-28T09:56:27;17.90;29.10
11454;DHT22;5783;55.174;61.310;2023-02-28T09:59:18;18.00;29.30
11454;DHT22;5783;55.174;61.310;2023-02-28T10:11:14;18.50;28.60
11454;DHT22;5783;55.174;61.310;2023-02-28T10:16:55;18.40;28.80
11454;DHT22;5783;55.174;61.310;2023-02-28T10:25:44;18.30;29.00
11454;DHT22;5783;55.174;61.310;2023-02-28T10:28:16;18.20;28.50
11454;DHT22;5783;55.174;61.310;2023-02-28T10:31:05;18.20;28.90
11454;DHT22;5783;55.174;61.310;2023-02-28T10:33:36;18.20;29.20
11454;DHT22;5783;55.174;61.310;2023-02-28T10:36:05;18.20;29.00
11454;DHT22;5783;55.174;61.310;2023-02-28T10:38:38;18.20;29.20
11454;DHT22;5783;55.174;61.310;2023-02-28T10:41:10;18.30;29.10
11454;DHT22;5783;55.174;61.310;2023-02-28T10:43:41;18.30;29.00
11454;DHT22;5783;55.174;61.310;2023-02-28T10:46:32;18.20;28.30
11454;DHT22;5783;55.174;61.310;2023-02-28T10:49:05;18.20;28.90
11454;DHT22;5783;55.174;61.310;2023-02-28T10:51:37;18.20;28.40
11454;DHT22;5783;55.174;61.310;2023-02-28T10:57:18;18.20;28.60
11454;DHT22;5783;55.174;61.310;2023-02-28T11:02:38;18.40;29.10
11454;DHT22;5783;55.174;61.310;2023-02-28T11:08:18;18.70;28.50
11454;DHT22;5783;55.174;61.310;2023-02-28T11:13:38;18.70;28.30
11454;DHT22;5783;55.174;61.310;2023-02-28T11:16:10;18.70;28.20
11454;DHT22;5783;55.174;61.310;2023-02-28T11:18:59;18.80;28.30
11454;DHT22;5783;55.174;61.310;2023-02-28T11:22:08;18.80;28.00
11454;DHT22;5783;55.174;61.310;2023-02-28T11:34:00;18.90;28.10
11454;DHT22;5783;55.174;61.310;2023-02-28T11:36:04;19.00;28.30
11454;DHT22;5783;55.174;61.310;2023-02-28T11:38:34;19.20;28.20
11454;DHT22;5783;55.174;61.310;2023-02-28T12:02:32;19.20;27.80
11454;DHT22;5783;55.174;61.310;2023-02-28T12:23:41;18.90;27.60
11454;DHT22;5783;55.174;61.310;2023-02-28T12:30:13;18.90;27.40
11454;DHT22;5783;55.174;61.310;2023-02-28T12:35:16;18.80;27.50
11454;DHT22;5783;55.174;61.310;2023-02-28T12:38:05;18.80;27.40
11454;DHT22;5783;55.174;61.310;2023-02-28T12:44:05;18.70;27.40
11454;DHT22;5783;55.174;61.310;2023-02-28T12:46:55;18.60;27.30
11454;DHT22;5783;55.174;61.310;2023-02-28T12:52:22;18.60;27.60
11454;DHT22;5783;55.174;61.310;2023-02-28T12:58:03;18.70;27.40
11454;DHT22;5783;55.174;61.310;2023-02-28T13:00:34;18.70;27.30
11454;DHT22;5783;55.174;61.310;2023-02-28T13:09:22;18.10;27.50
11454;DHT22;5783;55.174;61.310;2023-02-28T13:11:53;17.90;27.70
11454;DHT22;5783;55.174;61.310;2023-02-28T13:14:43;17.90;27.90
11454;DHT22;5783;55.174;61.310;2023-02-28T13:17:17;17.90;27.90
11454;DHT22;5783;55.174;61.310;2023-02-28T13:22:39;17.90;28.00
11454;DHT22;5783;55.174;61.310;2023-02-28T13:28:56;18.10;27.90
11454;DHT22;5783;55.174;61.310;2023-02-28T13:31:08;18.10;27.60
11454;DHT22;5783;55.174;61.310;2023-02-28T13:36:30;18.10;27.80
11454;DHT22;5783;55.174;61.310;2023-02-28T13:39:02;18.10;28.10
11454;DHT22;5783;55.174;61.310;2023-02-28T13:49:48;18.20;27.50
11454;DHT22;5783;55.174;61.310;2023-02-28T13:52:21;18.20;27.30
11454;DHT22;5783;55.174;61.310;2023-02-28T14:01:30;18.30;27.10
11454;DHT22;5783;55.174;61.310;2023-02-28T14:07:08;18.40;26.70
11454;DHT22;5783;55.174;61.310;2023-02-28T14:09:41;18.30;26.70
11454;DHT22;5783;55.174;61.310;2023-02-28T14:18:32;18.00;27.00
11454;DHT22;5783;55.174;61.310;2023-02-28T14:21:09;17.90;27.10
11454;DHT22;5783;55.174;61.310;2023-02-28T14:39:01;17.40;27.70
11454;DHT22;5783;55.174;61.310;2023-02-28T14:41:50;17.30;27.70
11454;DHT22;5783;55.174;61.310;2023-02-28T14:44:39;17.30;27.60
11454;DHT22;5783;55.174;61.310;2023-02-28T14:47:13;17.30;27.50
11454;DHT22;5783;55.174;61.310;2023-02-28T14:50:00;17.30;27.50
11454;DHT22;5783;55.174;61.310;2023-02-28T14:52:32;17.40;27.60
11454;DHT22;5783;55.174;61.310;2023-02-28T15:01:02;17.30;27.50
11454;DHT22;5783;55.174;61.310;2023-02-28T15:06:40;17.20;28.10
11454;DHT22;5783;55.174;61.310;2023-02-28T15:09:14;17.20;28.80
11454;DHT22;5783;55.174;61.310;2023-02-28T15:11:41;17.10;28.70
11454;DHT22;5783;55.174;61.310;2023-02-28T15:14:14;17.10;28.40
11454;DHT22;5783;55.174;61.310;2023-02-28T15:16:44;17.00;28.80
11454;DHT22;5783;55.174;61.310;2023-02-28T15:24:56;17.00;29.50
11454;DHT22;5783;55.174;61.310;2023-02-28T15:27:46;16.90;29.60
11454;DHT22;5783;55.174;61.310;2023-02-28T15:36:16;16.80;29.60
11454;DHT22;5783;55.174;61.310;2023-02-28T15:38:50;16.80;29.70
11454;DHT22;5783;55.174;61.310;2023-02-28T15:41:39;16.90;29.70
11454;DHT22;5783;55.174;61.310;2023-02-28T15:44:29;16.90;29.60
11454;DHT22;5783;55.174;61.310;2023-02-28T15:47:04;16.90;29.50
11454;DHT22;5783;55.174;61.310;2023-02-28T15:50:10;17.00;29.60
11454;DHT22;5783;55.174;61.310;2023-02-28T15:52:05;17.10;29.60
11454;DHT22;5783;55.174;61.310;2023-02-28T15:54:35;17.10;29.50
11454;DHT22;5783;55.174;61.310;2023-02-28T15:57:24;17.20;29.30
11454;DHT22;5783;55.174;61.310;2023-02-28T15:59:56;17.30;29.30
11454;DHT22;5783;55.174;61.310;2023-02-28T16:02:45;17.30;29.30
11454;DHT22;5783;55.174;61.310;2023-02-28T16:08:26;17.40;29.20
11454;DHT22;5783;55.174;61.310;2023-02-28T16:10:55;17.40;29.20
11454;DHT22;5783;55.174;61.310;2023-02-28T16:13:24;17.40;29.20
11454;DHT22;5783;55.174;61.310;2023-02-28T16:15:53;17.40;29.20
11454;DHT22;5783;55.174;61.310;2023-02-28T16:18:23;17.40;29.30
11454;DHT22;5783;55.174;61.310;2023-02-28T16:20:54;17.50;29.00
11454;DHT22;5783;55.174;61.310;2023-02-28T16:23:23;17.50;29.00
11454;DHT22;5783;55.174;61.310;2023-02-28T16:25:52;17.50;28.90
11454;DHT22;5783;55.174;61.310;2023-02-28T16:30:55;17.50;29.00
11454;DHT22;5783;55.174;61.310;2023-02-28T16:33:24;17.40;29.00
11454;DHT22;5783;55.174;61.310;2023-02-28T16:35:53;17.50;28.90
11454;DHT22;5783;55.174;61.310;2023-02-28T16:38:22;17.50;28.90
11454;DHT22;5783;55.174;61.310;2023-02-28T16:40:55;17.40;28.90
11454;DHT22;5783;55.174;61.310;2023-02-28T16:43:25;17.50;28.90
11454;DHT22;5783;55.174;61.310;2023-02-28T16:45:56;17.40;28.80
11454;DHT22;5783;55.174;61.310;2023-02-28T16:48:27;17.40;28.90
11454;DHT22;5783;55.174;61.310;2023-02-28T16:50:57;17.40;28.90
11454;DHT22;5783;55.174;61.310;2023-02-28T16:53:26;17.30;29.00
11454;DHT22;5783;55.174;61.310;2023-02-28T16:55:55;17.30;29.10
11454;DHT22;5783;55.174;61.310;2023-02-28T16:58:24;17.30;29.00
11454;DHT22;5783;55.174;61.310;2023-02-28T17:00:54;17.30;29.00
11454;DHT22;5783;55.174;61.310;2023-02-28T17:03:26;17.30;29.10
11454;DHT22;5783;55.174;61.310;2023-02-28T17:05:56;17.20;29.10
11454;DHT22;5783;55.174;61.310;2023-02-28T17:08:25;17.20;29.20
11454;DHT22;5783;55.174;61.310;2023-02-28T17:10:55;17.30;29.20
11454;DHT22;5783;55.174;61.310;2023-02-28T17:13:25;17.30;29.10
11454;DHT22;5783;55.174;61.310;2023-02-28T17:15:56;17.30;29.20
11454;DHT22;5783;55.174;61.310;2023-02-28T17:18:25;17.30;28.90
11454;DHT22;5783;55.174;61.310;2023-02-28T17:20:57;17.20;29.20
11454;DHT22;5783;55.174;61.310;2023-02-28T17:23:26;17.20;29.20
11454;DHT22;5783;55.174;61.310;2023-02-28T17:25:56;17.30;29.20
11454;DHT22;5783;55.174;61.310;2023-02-28T17:28:25;17.30;29.20
11454;DHT22;5783;55.174;61.310;2023-02-28T17:30:54;17.30;29.20
11454;DHT22;5783;55.174;61.310;2023-02-28T17:33:23;17.30;29.20
11454;DHT22;5783;55.174;61.310;2023-02-28T17:35:52;17.30;29.20
11454;DHT22;5783;55.174;61.310;2023-02-28T17:38:21;17.30;29.00
11454;DHT22;5783;55.174;61.310;2023-02-28T17:40:50;17.20;29.10
11454;DHT22;5783;55.174;61.310;2023-02-28T17:43:21;17.20;29.50
11454;DHT22;5783;55.174;61.310;2023-02-28T17:45:51;17.20;29.90
11454;DHT22;5783;55.174;61.310;2023-02-28T17:48:20;17.10;29.70
11454;DHT22;5783;55.174;61.310;2023-02-28T17:50:49;17.20;29.60
11454;DHT22;5783;55.174;61.310;2023-02-28T17:53:18;17.20;29.50
11454;DHT22;5783;55.174;61.310;2023-02-28T17:55:50;17.20;29.40
11454;DHT22;5783;55.174;61.310;2023-02-28T17:58:20;17.30;29.30
11454;DHT22;5783;55.174;61.310;2023-02-28T18:00:49;17.30;29.30
11454;DHT22;5783;55.174;61.310;2023-02-28T18:03:20;17.30;29.10
11454;DHT22;5783;55.174;61.310;2023-02-28T18:05:51;17.30;29.30
11454;DHT22;5783;55.174;61.310;2023-02-28T18:08:20;17.30;29.30
11454;DHT22;5783;55.174;61.310;2023-02-28T18:10:49;17.30;29.30
11454;DHT22;5783;55.174;61.310;2023-02-28T18:13:18;17.30;29.30
11454;DHT22;5783;55.174;61.310;2023-02-28T18:15:47;17.30;29.30
11454;DHT22;5783;55.174;61.310;2023-02-28T18:18:16;17.30;29.20
11454;DHT22;5783;55.174;61.310;2023-02-28T18:20:46;17.30;29.20
11454;DHT22;5783;55.174;61.310;2023-02-28T18:23:16;17.30;29.20
11454;DHT22;5783;55.174;61.310;2023-02-28T18:25:47;17.30;29.20
11454;DHT22;5783;55.174;61.310;2023-02-28T18:28:18;17.30;29.30
11454;DHT22;5783;55.174;61.310;2023-02-28T18:30:47;17.20;28.90
11454;DHT22;5783;55.174;61.310;2023-02-28T18:33:16;17.20;29.50
11454;DHT22;5783;55.174;61.310;2023-02-28T18:35:53;17.10;29.80
11454;DHT22;5783;55.174;61.310;2023-02-28T18:38:18;17.00;29.80
11454;DHT22;5783;55.174;61.310;2023-02-28T18:41:08;17.00;29.80
11454;DHT22;5783;55.174;61.310;2023-02-28T18:43:38;17.10;29.80
11454;DHT22;5783;55.174;61.310;2023-02-28T18:46:26;17.10;29.60
11454;DHT22;5783;55.174;61.310;2023-02-28T18:48:56;17.10;29.50
11454;DHT22;5783;55.174;61.310;2023-02-28T18:51:26;17.10;29.40
11454;DHT22;5783;55.174;61.310;2023-02-28T18:53:55;17.10;29.70
11454;DHT22;5783;55.174;61.310;2023-02-28T18:56:25;17.10;29.50
11454;DHT22;5783;55.174;61.310;2023-02-28T18:58:55;17.10;29.40
11454;DHT22;5783;55.174;61.310;2023-02-28T19:01:26;17.10;29.40
11454;DHT22;5783;55.174;61.310;2023-02-28T19:03:58;17.20;29.40
11454;DHT22;5783;55.174;61.310;2023-02-28T19:06:29;17.20;29.40
11454;DHT22;5783;55.174;61.310;2023-02-28T19:09:01;17.20;29.40
11454;DHT22;5783;55.174;61.310;2023-02-28T19:11:31;17.20;29.40
11454;DHT22;5783;55.174;61.310;2023-02-28T19:14:01;17.10;29.30
11454;DHT22;5783;55.174;61.310;2023-02-28T19:16:30;17.10;29.40
11454;DHT22;5783;55.174;61.310;2023-02-28T19:18:59;17.10;29.40
11454;DHT22;5783;55.174;61.310;2023-02-28T19:21:28;17.10;29.30
11454;DHT22;5783;55.174;61.310;2023-02-28T19:23:58;17.20;29.20
11454;DHT22;5783;55.174;61.310;2023-02-28T19:26:27;17.20;29.10
11454;DHT22;5783;55.174;61.310;2023-02-28T19:28:56;17.30;29.00
11454;DHT22;5783;55.174;61.310;2023-02-28T19:31:25;17.30;29.20
11454;DHT22;5783;55.174;61.310;2023-02-28T19:33:54;17.30;29.10
11454;DHT22;5783;55.174;61.310;2023-02-28T19:36:24;17.30;29.10
11454;DHT22;5783;55.174;61.310;2023-02-28T19:38:54;17.20;29.10
11454;DHT22;5783;55.174;61.310;2023-02-28T19:41:23;17.20;29.10
11454;DHT22;5783;55.174;61.310;2023-02-28T19:43:52;17.20;29.10
11454;DHT22;5783;55.174;61.310;2023-02-28T19:46:22;17.10;29.10
11454;DHT22;5783;55.174;61.310;2023-02-28T19:49:11;17.10;29.30
11454;DHT22;5783;55.174;61.310;2023-02-28T19:51:40;17.10;29.10
11454;DHT22;5783;55.174;61.310;2023-02-28T19:54:10;17.10;29.20
11454;DHT22;5783;55.174;61.310;2023-02-28T19:56:39;17.10;29.30
11454;DHT22;5783;55.174;61.310;2023-02-28T19:59:08;17.10;29.30
11454;DHT22;5783;55.174;61.310;2023-02-28T20:01:38;17.10;29.30
11454;DHT22;5783;55.174;61.310;2023-02-28T20:04:08;17.10;29.20
11454;DHT22;5783;55.174;61.310;2023-02-28T20:06:38;17.10;29.20
11454;DHT22;5783;55.174;61.310;2023-02-28T20:09:08;17.00;29.30
11454;DHT22;5783;55.174;61.310;2023-02-28T20:11:37;17.00;29.30
11454;DHT22;5783;55.174;61.310;2023-02-28T20:14:08;17.00;29.30
11454;DHT22;5783;55.174;61.310;2023-02-28T20:16:58;17.00;29.30
11454;DHT22;5783;55.174;61.310;2023-02-28T20:19:27;17.10;29.30